This is the latest recevied weather packets stored in our database for station/object SP1GDK-10. If no packets are shown the sender has not sent any weather packets the latest 10 day(s).
| Time | Temp. | Humidity | Pressure | Rain* | Wind** | Luminosity | Snow |
|---|---|---|---|---|---|---|---|
| 1777850959 | 17.78° C | 49% | 1010.7 hPa | - | - | - | - |
| 1777847952 | 17.78° C | 51% | 1010.8 hPa | - | - | - | - |
| 1777843155 | 18.33° C | 49% | 1010.8 hPa | - | - | - | - |
| 1777840754 | 18.89° C | 43% | 1010.4 hPa | - | - | - | - |
| 1777838355 | 19.44° C | 40% | 1010.7 hPa | - | - | - | - |
| 1777831154 | 22.22° C | 32% | 1010.5 hPa | - | - | - | - |
| 1777829359 | 23.33° C | 30% | 1010.4 hPa | - | - | - | - |
| 1777819753 | 28.33° C | 24% | 1010.6 hPa | - | - | - | - |
| 1777813753 | 27.78° C | 27% | 1011.5 hPa | - | - | - | - |
| 1777808356 | 26.11° C | 32% | 1012.1 hPa | - | - | - | - |
| 1777807756 | 26.11° C | 33% | 1012.3 hPa | - | - | - | - |
| 1777805357 | 25.56° C | 33% | 1012.8 hPa | - | - | - | - |
| 1777804754 | 25° C | 33% | 1012.9 hPa | - | - | - | - |
| 1777801754 | 23.33° C | 38% | 1013.2 hPa | - | - | - | - |
| 1777801153 | 22.78° C | 38% | 1013.4 hPa | - | - | - | - |
| 1777799956 | 22.22° C | 41% | 1013.5 hPa | - | - | - | - |
| 1777799365 | 21.67° C | 42% | 1013.7 hPa | - | - | - | - |
| 1777798458 | 21.11° C | 43% | 1013.5 hPa | - | - | - | - |
| 1777796416 | 19.44° C | 46% | 1013.9 hPa | - | - | - | - |
| 1777795223 | 18.89° C | 46% | 1014 hPa | - | - | - | - |
| 1777794560 | 18.33° C | 47% | 1014 hPa | - | - | - | - |
| 1777782563 | 12.78° C | 56% | 1014.6 hPa | - | - | - | - |
| 1777780755 | 12.22° C | 57% | 1014.7 hPa | - | - | - | - |
| 1777776555 | 12.22° C | 56% | 1014.8 hPa | - | - | - | - |
| 1777771157 | 13.33° C | 54% | 1015.2 hPa | - | - | - | - |
* Rain since midnight (hover to see other rain measurements)
** Current wind speed in m/s (hover to see current wind gust speed)